Arnots Addition, PA

6:22 AM EST on January 27, 2015 (GMT -0500)
APRSWXNET Frackville PA US | Change Station
CLOSE
Current Station
Personal Weather Station
Location: Frackville, PA
Elevation: 1490 ft
Nearby Weather Stations

Elev 1490 ft 40.78 °N, 76.23 °W | Updated 36 minutes ago

Overcast
Overcast
19 °F
Feels Like 11 °F
N
6
Wind Variable Wind from NW
Gusts 13.0 mph

Today
High -- | Low -- °F
--% Chance of Precip.
Yesterday
High -- | Low -- °F
Precip. -- in
7:19 AM 5:16 PM
First Quarter, 53% visible
Pressure 29.77 in
Visibility 10.0 miles
Clouds Scattered Clouds 3600 ft
Overcast 4700 ft
Windchill 11 °F
Dew Point 17 °F
Humidity 90%
Rainfall 0.00 in
Snow Depth Not available.
UV 0 out of 12
Pollen .10 out of 12
Air Quality Not available.
Flu Activity Not available.
METAR KRDG 271054Z 32008KT 10SM SCT036 OVC047 M03/M08 A2974 RMK AO2 SNB29E34 SLP079 P0000 T10281078

More Conditions Fewer Conditions

Pressure 29.77 in
Visibility 10.0 miles
Clouds Scattered Clouds 3600 ft
Overcast 4700 ft
Windchill 11 °F
Dew Point 17 °F
Humidity 90%
Rainfall 0.00 in
Snow Depth Not available.
UV 0 out of 12
Pollen .10 out of 12
Air Quality Not available.
Flu Activity Not available.
METAR KRDG 271054Z 32008KT 10SM SCT036 OVC047 M03/M08 A2974 RMK AO2 SNB29E34 SLP079 P0000 T10281078

More Conditions Fewer Conditions

10-Day Weather Forecast

Almanac

Astronomy

Jan. 27, 2015 Rise Set
Actual Time
Civil Twilight
Nautical Twilight
Astronomical Twilight
Moon
Length of Visible Light
Length of Day
Tomorrow will be .
, % of the Moon is Illuminated

Today's Extremes

State Highs State Lows

Community

WunderPhotos

Upload Photos

1,790,564 photos uploaded!

WunderBlogs® & News

Nearby

Air Quality

  Air Quality AQ Index Pollutant
Not available.

Snow Depth

Station Depth Elevation

Earthquake Activity

City Distance Mag. Time & Date
Minimum magnitude displayed is 2.5.

Coastal Water Temperatures

Place Temperature

Nearby Weather Stations